sensor_id;sensor_type;location;lat;lon;timestamp;pressure;altitude;pressure_sealevel;temperature;humidity
30081;BME280;16902;50.816;12.828;2023-02-04T00:01:35;98226.75;;;2.42;100.00
30081;BME280;16902;50.816;12.828;2023-02-04T00:06:37;98239.25;;;2.46;100.00
30081;BME280;16902;50.816;12.828;2023-02-04T00:11:38;98249.88;;;2.42;100.00
30081;BME280;16902;50.816;12.828;2023-02-04T00:16:40;98258.31;;;2.44;100.00
30081;BME280;16902;50.816;12.828;2023-02-04T00:21:42;98248.38;;;2.50;100.00
30081;BME280;16902;50.816;12.828;2023-02-04T00:26:44;98259.94;;;2.56;100.00
30081;BME280;16902;50.816;12.828;2023-02-04T00:31:46;98262.63;;;2.66;100.00
30081;BME280;16902;50.816;12.828;2023-02-04T00:36:48;98276.78;;;2.71;100.00
30081;BME280;16902;50.816;12.828;2023-02-04T00:41:50;98357.03;;;2.64;100.00
30081;BME280;16902;50.816;12.828;2023-02-04T00:46:52;98383.84;;;1.78;100.00
30081;BME280;16902;50.816;12.828;2023-02-04T00:51:54;98397.22;;;1.34;100.00
30081;BME280;16902;50.816;12.828;2023-02-04T00:56:56;98422.28;;;1.17;100.00
30081;BME280;16902;50.816;12.828;2023-02-04T01:01:57;98434.81;;;1.09;100.00
30081;BME280;16902;50.816;12.828;2023-02-04T01:07:00;98445.25;;;1.06;100.00
30081;BME280;16902;50.816;12.828;2023-02-04T01:12:02;98459.03;;;0.92;100.00
30081;BME280;16902;50.816;12.828;2023-02-04T01:17:04;98464.47;;;0.88;100.00
30081;BME280;16902;50.816;12.828;2023-02-04T01:22:06;98475.41;;;0.90;100.00
30081;BME280;16902;50.816;12.828;2023-02-04T01:27:08;98494.28;;;0.89;100.00
30081;BME280;16902;50.816;12.828;2023-02-04T01:32:10;98511.50;;;0.87;100.00
30081;BME280;16902;50.816;12.828;2023-02-04T01:37:11;98523.25;;;0.76;100.00
30081;BME280;16902;50.816;12.828;2023-02-04T01:42:15;98536.53;;;0.83;100.00
30081;BME280;16902;50.816;12.828;2023-02-04T01:47:17;98561.88;;;0.88;100.00
30081;BME280;16902;50.816;12.828;2023-02-04T01:52:20;98564.50;;;0.86;100.00
30081;BME280;16902;50.816;12.828;2023-02-04T01:57:24;98582.91;;;0.93;100.00
30081;BME280;16902;50.816;12.828;2023-02-04T02:02:55;98594.69;;;0.95;100.00
30081;BME280;16902;50.816;12.828;2023-02-04T02:07:59;98620.28;;;0.83;100.00
30081;BME280;16902;50.816;12.828;2023-02-04T02:13:04;98631.53;;;0.80;100.00
30081;BME280;16902;50.816;12.828;2023-02-04T02:18:12;98642.84;;;0.77;100.00
30081;BME280;16902;50.816;12.828;2023-02-04T02:23:25;98646.38;;;0.75;100.00
30081;BME280;16902;50.816;12.828;2023-02-04T02:28:30;98666.28;;;0.57;100.00
30081;BME280;16902;50.816;12.828;2023-02-04T02:33:32;98671.94;;;0.62;100.00
30081;BME280;16902;50.816;12.828;2023-02-04T02:38:34;98692.38;;;0.64;100.00
30081;BME280;16902;50.816;12.828;2023-02-04T02:43:37;98700.66;;;0.67;100.00
30081;BME280;16902;50.816;12.828;2023-02-04T02:48:39;98707.63;;;0.65;100.00
30081;BME280;16902;50.816;12.828;2023-02-04T02:53:41;98716.72;;;0.57;100.00
30081;BME280;16902;50.816;12.828;2023-02-04T02:58:43;98721.75;;;0.58;100.00
30081;BME280;16902;50.816;12.828;2023-02-04T03:03:48;98740.59;;;0.57;100.00
30081;BME280;16902;50.816;12.828;2023-02-04T03:08:52;98748.56;;;0.52;100.00
30081;BME280;16902;50.816;12.828;2023-02-04T03:13:57;98762.28;;;0.51;100.00
30081;BME280;16902;50.816;12.828;2023-02-04T03:19:00;98781.56;;;0.43;100.00
30081;BME280;16902;50.816;12.828;2023-02-04T03:24:03;98783.81;;;0.49;100.00
30081;BME280;16902;50.816;12.828;2023-02-04T03:29:07;98810.41;;;0.46;100.00
30081;BME280;16902;50.816;12.828;2023-02-04T03:34:10;98823.38;;;0.43;100.00
30081;BME280;16902;50.816;12.828;2023-02-04T03:39:12;98832.47;;;0.49;100.00
30081;BME280;16902;50.816;12.828;2023-02-04T03:44:14;98852.19;;;0.33;100.00
30081;BME280;16902;50.816;12.828;2023-02-04T03:49:15;98856.50;;;0.32;100.00
30081;BME280;16902;50.816;12.828;2023-02-04T03:54:17;98861.88;;;0.28;100.00
30081;BME280;16902;50.816;12.828;2023-02-04T03:59:19;98875.34;;;0.31;100.00
30081;BME280;16902;50.816;12.828;2023-02-04T04:04:21;98884.41;;;0.37;100.00
30081;BME280;16902;50.816;12.828;2023-02-04T04:09:23;98897.66;;;0.29;100.00
30081;BME280;16902;50.816;12.828;2023-02-04T04:14:27;98909.31;;;0.19;100.00
30081;BME280;16902;50.816;12.828;2023-02-04T04:19:29;98929.41;;;0.11;100.00
30081;BME280;16902;50.816;12.828;2023-02-04T04:24:33;98952.38;;;0.12;100.00
30081;BME280;16902;50.816;12.828;2023-02-04T04:29:35;98964.59;;;0.07;100.00
30081;BME280;16902;50.816;12.828;2023-02-04T04:34:36;98988.81;;;0.02;100.00
30081;BME280;16902;50.816;12.828;2023-02-04T04:39:38;99009.44;;;-0.02;100.00
30081;BME280;16902;50.816;12.828;2023-02-04T04:44:40;99003.66;;;-0.05;100.00
30081;BME280;16902;50.816;12.828;2023-02-04T04:49:42;99018.03;;;-0.03;100.00
30081;BME280;16902;50.816;12.828;2023-02-04T04:54:44;99028.75;;;-0.12;100.00
30081;BME280;16902;50.816;12.828;2023-02-04T04:59:46;99030.16;;;-0.22;100.00
30081;BME280;16902;50.816;12.828;2023-02-04T05:04:47;99038.75;;;-0.23;100.00
30081;BME280;16902;50.816;12.828;2023-02-04T05:09:49;99051.00;;;-0.30;100.00
30081;BME280;16902;50.816;12.828;2023-02-04T05:14:51;99056.06;;;-0.28;100.00
30081;BME280;16902;50.816;12.828;2023-02-04T05:19:53;99063.00;;;-0.30;100.00
30081;BME280;16902;50.816;12.828;2023-02-04T05:24:55;99070.38;;;-0.24;100.00
30081;BME280;16902;50.816;12.828;2023-02-04T05:29:56;99084.44;;;-0.33;100.00
30081;BME280;16902;50.816;12.828;2023-02-04T05:34:58;99093.56;;;-0.44;100.00
30081;BME280;16902;50.816;12.828;2023-02-04T05:40:00;99101.88;;;-0.57;100.00
30081;BME280;16902;50.816;12.828;2023-02-04T05:45:03;99108.25;;;-0.65;100.00
30081;BME280;16902;50.816;12.828;2023-02-04T05:50:05;99115.19;;;-0.67;100.00
30081;BME280;16902;50.816;12.828;2023-02-04T05:55:09;99114.44;;;-0.52;100.00
30081;BME280;16902;50.816;12.828;2023-02-04T06:00:12;99135.09;;;-0.39;100.00
30081;BME280;16902;50.816;12.828;2023-02-04T06:05:14;99145.03;;;-0.33;100.00
30081;BME280;16902;50.816;12.828;2023-02-04T06:10:16;99162.13;;;-0.34;100.00
30081;BME280;16902;50.816;12.828;2023-02-04T06:15:18;99185.22;;;-0.35;100.00
30081;BME280;16902;50.816;12.828;2023-02-04T06:20:21;99198.53;;;-0.46;100.00
30081;BME280;16902;50.816;12.828;2023-02-04T06:25:23;99203.88;;;-0.50;100.00
30081;BME280;16902;50.816;12.828;2023-02-04T06:30:25;99214.31;;;-0.55;100.00
30081;BME280;16902;50.816;12.828;2023-02-04T06:35:26;99237.47;;;-0.58;100.00
30081;BME280;16902;50.816;12.828;2023-02-04T06:40:28;99246.66;;;-0.54;100.00
30081;BME280;16902;50.816;12.828;2023-02-04T06:45:31;99250.28;;;-0.58;100.00
30081;BME280;16902;50.816;12.828;2023-02-04T06:50:32;99264.25;;;-0.65;100.00
30081;BME280;16902;50.816;12.828;2023-02-04T06:55:34;99267.78;;;-0.68;100.00
30081;BME280;16902;50.816;12.828;2023-02-04T07:00:36;99274.84;;;-0.73;100.00
30081;BME280;16902;50.816;12.828;2023-02-04T07:05:38;99267.50;;;-0.62;100.00
30081;BME280;16902;50.816;12.828;2023-02-04T07:10:40;99277.41;;;-0.73;100.00
30081;BME280;16902;50.816;12.828;2023-02-04T07:15:42;99279.28;;;-0.76;100.00
30081;BME280;16902;50.816;12.828;2023-02-04T07:20:43;99281.25;;;-0.64;100.00
30081;BME280;16902;50.816;12.828;2023-02-04T07:25:45;99274.38;;;-0.62;100.00
30081;BME280;16902;50.816;12.828;2023-02-04T07:30:47;99277.75;;;-0.62;100.00
30081;BME280;16902;50.816;12.828;2023-02-04T07:35:49;99284.66;;;-0.64;100.00
30081;BME280;16902;50.816;12.828;2023-02-04T07:40:51;99299.16;;;-0.64;100.00
30081;BME280;16902;50.816;12.828;2023-02-04T07:45:53;99320.41;;;-0.62;100.00
30081;BME280;16902;50.816;12.828;2023-02-04T07:50:55;99325.22;;;-0.56;100.00
30081;BME280;16902;50.816;12.828;2023-02-04T07:55:57;99348.50;;;-0.43;100.00
30081;BME280;16902;50.816;12.828;2023-02-04T08:00:59;99355.16;;;-0.22;100.00
30081;BME280;16902;50.816;12.828;2023-02-04T08:06:01;99366.09;;;-0.18;100.00
30081;BME280;16902;50.816;12.828;2023-02-04T08:11:03;99378.69;;;-0.14;100.00
30081;BME280;16902;50.816;12.828;2023-02-04T08:16:05;99395.81;;;-0.16;100.00
30081;BME280;16902;50.816;12.828;2023-02-04T08:21:07;99404.38;;;0.02;100.00
30081;BME280;16902;50.816;12.828;2023-02-04T08:26:10;99411.84;;;0.07;100.00
30081;BME280;16902;50.816;12.828;2023-02-04T08:31:12;99418.31;;;0.14;100.00
30081;BME280;16902;50.816;12.828;2023-02-04T08:36:14;99419.13;;;0.14;100.00
30081;BME280;16902;50.816;12.828;2023-02-04T08:41:16;99431.34;;;0.09;100.00
30081;BME280;16902;50.816;12.828;2023-02-04T08:46:18;99436.97;;;0.52;100.00
30081;BME280;16902;50.816;12.828;2023-02-04T08:51:20;99451.72;;;0.30;100.00
30081;BME280;16902;50.816;12.828;2023-02-04T08:56:22;99468.16;;;0.25;100.00
30081;BME280;16902;50.816;12.828;2023-02-04T09:01:24;99473.56;;;0.19;100.00
30081;BME280;16902;50.816;12.828;2023-02-04T09:06:26;99479.00;;;0.31;100.00
30081;BME280;16902;50.816;12.828;2023-02-04T09:11:28;99487.06;;;0.40;100.00
30081;BME280;16902;50.816;12.828;2023-02-04T09:16:30;99492.16;;;0.59;100.00
30081;BME280;16902;50.816;12.828;2023-02-04T09:21:32;99499.41;;;0.68;100.00
30081;BME280;16902;50.816;12.828;2023-02-04T09:26:34;99501.78;;;0.54;100.00
30081;BME280;16902;50.816;12.828;2023-02-04T09:31:35;99514.16;;;0.81;100.00
30081;BME280;16902;50.816;12.828;2023-02-04T09:36:38;99531.19;;;0.82;100.00
30081;BME280;16902;50.816;12.828;2023-02-04T09:41:40;99525.25;;;0.81;100.00
30081;BME280;16902;50.816;12.828;2023-02-04T09:46:46;99541.06;;;0.55;100.00
30081;BME280;16902;50.816;12.828;2023-02-04T09:51:49;99545.22;;;0.38;100.00
30081;BME280;16902;50.816;12.828;2023-02-04T09:56:51;99551.03;;;0.42;100.00
30081;BME280;16902;50.816;12.828;2023-02-04T10:01:56;99556.88;;;0.63;100.00
30081;BME280;16902;50.816;12.828;2023-02-04T10:07:00;99560.75;;;1.06;100.00
30081;BME280;16902;50.816;12.828;2023-02-04T10:12:05;99559.81;;;1.59;100.00
30081;BME280;16902;50.816;12.828;2023-02-04T10:17:07;99561.63;;;1.90;100.00
30081;BME280;16902;50.816;12.828;2023-02-04T10:22:19;99568.16;;;1.80;100.00
30081;BME280;16902;50.816;12.828;2023-02-04T10:27:21;99568.53;;;1.39;100.00
30081;BME280;16902;50.816;12.828;2023-02-04T10:32:28;99567.41;;;0.93;100.00
30081;BME280;16902;50.816;12.828;2023-02-04T10:37:31;99561.75;;;1.71;100.00
30081;BME280;16902;50.816;12.828;2023-02-04T10:42:33;99568.38;;;2.24;100.00
30081;BME280;16902;50.816;12.828;2023-02-04T10:47:34;99573.69;;;3.57;100.00
30081;BME280;16902;50.816;12.828;2023-02-04T10:52:45;99570.72;;;3.21;100.00
30081;BME280;16902;50.816;12.828;2023-02-04T10:57:50;99580.13;;;2.13;100.00
30081;BME280;16902;50.816;12.828;2023-02-04T11:03:15;99582.69;;;1.97;100.00
30081;BME280;16902;50.816;12.828;2023-02-04T11:08:28;99588.00;;;2.25;100.00
30081;BME280;16902;50.816;12.828;2023-02-04T11:13:40;99588.13;;;3.01;100.00
30081;BME280;16902;50.816;12.828;2023-02-04T11:18:53;99591.25;;;3.06;100.00
30081;BME280;16902;50.816;12.828;2023-02-04T11:29:28;99607.69;;;3.34;100.00
30081;BME280;16902;50.816;12.828;2023-02-04T11:34:48;99601.44;;;3.38;100.00
30081;BME280;16902;50.816;12.828;2023-02-04T11:39:57;99610.16;;;4.08;100.00
30081;BME280;16902;50.816;12.828;2023-02-04T11:45:12;99604.50;;;5.64;100.00
30081;BME280;16902;50.816;12.828;2023-02-04T11:50:22;99610.81;;;6.11;100.00
30081;BME280;16902;50.816;12.828;2023-02-04T11:55:34;99611.03;;;5.17;100.00
30081;BME280;16902;50.816;12.828;2023-02-04T12:00:36;99614.19;;;5.22;100.00
30081;BME280;16902;50.816;12.828;2023-02-04T12:05:41;99618.50;;;4.68;100.00
30081;BME280;16902;50.816;12.828;2023-02-04T12:10:57;99624.13;;;5.79;100.00
30081;BME280;16902;50.816;12.828;2023-02-04T12:16:03;99620.84;;;6.03;100.00
30081;BME280;16902;50.816;12.828;2023-02-04T12:21:06;99616.56;;;6.27;100.00
30081;BME280;16902;50.816;12.828;2023-02-04T12:26:08;99628.66;;;5.50;100.00
30081;BME280;16902;50.816;12.828;2023-02-04T12:31:10;99633.56;;;3.61;100.00
30081;BME280;16902;50.816;12.828;2023-02-04T12:36:12;99629.50;;;2.67;100.00
30081;BME280;16902;50.816;12.828;2023-02-04T12:41:14;99628.22;;;2.74;100.00
30081;BME280;16902;50.816;12.828;2023-02-04T12:46:17;99635.22;;;10.83;100.00
30081;BME280;16902;50.816;12.828;2023-02-04T12:51:18;99628.81;;;9.86;100.00
30081;BME280;16902;50.816;12.828;2023-02-04T12:56:21;99633.09;;;6.50;100.00
30081;BME280;16902;50.816;12.828;2023-02-04T13:01:24;99625.34;;;4.54;100.00
30081;BME280;16902;50.816;12.828;2023-02-04T13:06:26;99625.81;;;5.80;100.00
30081;BME280;16902;50.816;12.828;2023-02-04T13:11:28;99633.69;;;9.37;100.00
30081;BME280;16902;50.816;12.828;2023-02-04T13:16:30;99627.69;;;5.13;100.00
30081;BME280;16902;50.816;12.828;2023-02-04T13:21:32;99633.88;;;3.71;100.00
30081;BME280;16902;50.816;12.828;2023-02-04T13:26:34;99643.28;;;3.12;100.00
30081;BME280;16902;50.816;12.828;2023-02-04T13:31:35;99639.56;;;3.01;100.00
30081;BME280;16902;50.816;12.828;2023-02-04T13:36:37;99643.22;;;5.38;100.00
30081;BME280;16902;50.816;12.828;2023-02-04T13:41:39;99655.72;;;9.75;100.00
30081;BME280;16902;50.816;12.828;2023-02-04T13:46:41;99655.13;;;11.13;100.00
30081;BME280;16902;50.816;12.828;2023-02-04T13:51:43;99648.75;;;8.47;100.00
30081;BME280;16902;50.816;12.828;2023-02-04T13:56:45;99655.97;;;5.80;100.00
30081;BME280;16902;50.816;12.828;2023-02-04T14:01:47;99663.81;;;3.88;100.00
30081;BME280;16902;50.816;12.828;2023-02-04T14:06:49;99656.81;;;3.45;100.00
30081;BME280;16902;50.816;12.828;2023-02-04T14:11:51;99655.78;;;2.72;100.00
30081;BME280;16902;50.816;12.828;2023-02-04T14:16:52;99658.06;;;2.13;100.00
30081;BME280;16902;50.816;12.828;2023-02-04T14:21:54;99657.31;;;2.27;100.00
30081;BME280;16902;50.816;12.828;2023-02-04T14:26:56;99652.25;;;3.04;100.00
30081;BME280;16902;50.816;12.828;2023-02-04T14:31:58;99657.38;;;3.20;100.00
30081;BME280;16902;50.816;12.828;2023-02-04T14:37:00;99658.03;;;3.24;100.00
30081;BME280;16902;50.816;12.828;2023-02-04T14:42:02;99665.22;;;3.33;100.00
30081;BME280;16902;50.816;12.828;2023-02-04T14:47:05;99660.31;;;3.44;100.00
30081;BME280;16902;50.816;12.828;2023-02-04T14:52:07;99656.81;;;3.45;100.00
30081;BME280;16902;50.816;12.828;2023-02-04T14:57:10;99657.69;;;2.68;100.00
30081;BME280;16902;50.816;12.828;2023-02-04T15:02:12;99663.69;;;2.20;100.00
30081;BME280;16902;50.816;12.828;2023-02-04T15:07:17;99662.16;;;1.83;100.00
30081;BME280;16902;50.816;12.828;2023-02-04T15:12:18;99652.59;;;1.86;100.00
30081;BME280;16902;50.816;12.828;2023-02-04T15:17:20;99661.63;;;1.93;100.00
30081;BME280;16902;50.816;12.828;2023-02-04T15:22:22;99661.19;;;1.85;100.00
30081;BME280;16902;50.816;12.828;2023-02-04T15:27:24;99656.91;;;1.68;100.00
30081;BME280;16902;50.816;12.828;2023-02-04T15:32:26;99661.38;;;1.47;100.00
30081;BME280;16902;50.816;12.828;2023-02-04T15:37:27;99664.00;;;1.28;100.00
30081;BME280;16902;50.816;12.828;2023-02-04T15:42:29;99671.16;;;0.86;100.00
30081;BME280;16902;50.816;12.828;2023-02-04T15:47:31;99679.06;;;0.62;100.00
30081;BME280;16902;50.816;12.828;2023-02-04T15:52:32;99690.47;;;0.17;100.00
30081;BME280;16902;50.816;12.828;2023-02-04T15:57:34;99689.28;;;-0.15;100.00
30081;BME280;16902;50.816;12.828;2023-02-04T16:02:37;99692.63;;;-0.33;100.00
30081;BME280;16902;50.816;12.828;2023-02-04T16:07:38;99696.97;;;-0.35;100.00
30081;BME280;16902;50.816;12.828;2023-02-04T16:12:40;99704.44;;;-0.51;100.00
30081;BME280;16902;50.816;12.828;2023-02-04T16:17:42;99700.34;;;-0.55;100.00
30081;BME280;16902;50.816;12.828;2023-02-04T16:22:44;99706.44;;;-0.58;100.00
30081;BME280;16902;50.816;12.828;2023-02-04T16:27:46;99707.88;;;-0.72;100.00
30081;BME280;16902;50.816;12.828;2023-02-04T16:32:47;99711.25;;;-0.94;100.00
30081;BME280;16902;50.816;12.828;2023-02-04T16:37:49;99715.34;;;-1.12;100.00
30081;BME280;16902;50.816;12.828;2023-02-04T16:42:51;99723.13;;;-1.15;100.00
30081;BME280;16902;50.816;12.828;2023-02-04T16:47:52;99716.97;;;-1.09;100.00
30081;BME280;16902;50.816;12.828;2023-02-04T16:52:54;99717.75;;;-0.85;100.00
30081;BME280;16902;50.816;12.828;2023-02-04T16:57:56;99722.59;;;-0.57;100.00
30081;BME280;16902;50.816;12.828;2023-02-04T17:02:57;99728.97;;;-0.67;100.00
30081;BME280;16902;50.816;12.828;2023-02-04T17:07:59;99730.88;;;-0.94;100.00
30081;BME280;16902;50.816;12.828;2023-02-04T17:13:01;99734.53;;;-1.23;100.00
30081;BME280;16902;50.816;12.828;2023-02-04T17:18:02;99735.25;;;-1.43;100.00
30081;BME280;16902;50.816;12.828;2023-02-04T17:23:04;99736.09;;;-1.66;100.00
30081;BME280;16902;50.816;12.828;2023-02-04T17:28:06;99739.53;;;-1.67;100.00
30081;BME280;16902;50.816;12.828;2023-02-04T17:33:07;99742.41;;;-1.76;100.00
30081;BME280;16902;50.816;12.828;2023-02-04T17:38:09;99755.56;;;-1.89;100.00
30081;BME280;16902;50.816;12.828;2023-02-04T17:43:11;99753.16;;;-1.92;100.00
30081;BME280;16902;50.816;12.828;2023-02-04T17:48:13;99742.03;;;-1.66;100.00
30081;BME280;16902;50.816;12.828;2023-02-04T17:53:15;99742.19;;;-1.47;100.00
30081;BME280;16902;50.816;12.828;2023-02-04T17:58:22;99741.94;;;-1.39;100.00
30081;BME280;16902;50.816;12.828;2023-02-04T18:03:26;99750.44;;;-1.39;100.00
30081;BME280;16902;50.816;12.828;2023-02-04T18:08:36;99745.50;;;-1.21;100.00
30081;BME280;16902;50.816;12.828;2023-02-04T18:13:38;99746.16;;;-0.93;100.00
30081;BME280;16902;50.816;12.828;2023-02-04T18:18:40;99743.53;;;-0.69;100.00
30081;BME280;16902;50.816;12.828;2023-02-04T18:23:42;99744.81;;;-0.58;100.00
30081;BME280;16902;50.816;12.828;2023-02-04T18:28:47;99739.31;;;-0.70;100.00
30081;BME280;16902;50.816;12.828;2023-02-04T18:33:49;99734.91;;;-0.89;100.00
30081;BME280;16902;50.816;12.828;2023-02-04T18:38:51;99737.22;;;-0.83;100.00
30081;BME280;16902;50.816;12.828;2023-02-04T18:43:59;99729.41;;;-1.00;100.00
30081;BME280;16902;50.816;12.828;2023-02-04T18:49:18;99731.72;;;-0.94;100.00
30081;BME280;16902;50.816;12.828;2023-02-04T18:54:36;99725.56;;;-1.12;100.00
30081;BME280;16902;50.816;12.828;2023-02-04T18:59:39;99732.22;;;-1.30;100.00
30081;BME280;16902;50.816;12.828;2023-02-04T19:04:41;99740.53;;;-1.48;100.00
30081;BME280;16902;50.816;12.828;2023-02-04T19:09:43;99737.03;;;-1.69;100.00
30081;BME280;16902;50.816;12.828;2023-02-04T19:14:45;99741.88;;;-1.86;100.00
30081;BME280;16902;50.816;12.828;2023-02-04T19:19:58;99748.72;;;-1.87;100.00
30081;BME280;16902;50.816;12.828;2023-02-04T19:25:28;99750.28;;;-1.83;100.00
30081;BME280;16902;50.816;12.828;2023-02-04T19:31:11;99756.78;;;-1.99;100.00
30081;BME280;16902;50.816;12.828;2023-02-04T19:36:36;99748.34;;;-2.01;100.00
30081;BME280;16902;50.816;12.828;2023-02-04T19:41:51;99757.19;;;-2.11;100.00
30081;BME280;16902;50.816;12.828;2023-02-04T19:46:55;99761.88;;;-2.24;100.00
30081;BME280;16902;50.816;12.828;2023-02-04T19:51:58;99774.06;;;-2.32;100.00
30081;BME280;16902;50.816;12.828;2023-02-04T19:56:59;99776.22;;;-2.46;100.00
30081;BME280;16902;50.816;12.828;2023-02-04T20:02:16;99771.19;;;-2.49;100.00
30081;BME280;16902;50.816;12.828;2023-02-04T20:07:24;99770.31;;;-2.48;100.00
30081;BME280;16902;50.816;12.828;2023-02-04T20:12:27;99789.94;;;-2.24;100.00
30081;BME280;16902;50.816;12.828;2023-02-04T20:17:38;99790.97;;;-1.78;100.00
30081;BME280;16902;50.816;12.828;2023-02-04T20:27:46;99803.34;;;-1.42;100.00
30081;BME280;16902;50.816;12.828;2023-02-04T20:32:52;99812.50;;;-1.37;100.00
30081;BME280;16902;50.816;12.828;2023-02-04T20:37:57;99809.53;;;-1.24;100.00
30081;BME280;16902;50.816;12.828;2023-02-04T20:43:02;99817.94;;;-1.21;100.00
30081;BME280;16902;50.816;12.828;2023-02-04T20:53:38;99824.97;;;-1.04;100.00
30081;BME280;16902;50.816;12.828;2023-02-04T20:58:42;99827.13;;;-1.17;100.00
30081;BME280;16902;50.816;12.828;2023-02-04T21:03:45;99836.75;;;-1.23;100.00
30081;BME280;16902;50.816;12.828;2023-02-04T21:08:48;99838.94;;;-1.38;100.00
30081;BME280;16902;50.816;12.828;2023-02-04T21:13:51;99833.38;;;-1.49;100.00
30081;BME280;16902;50.816;12.828;2023-02-04T21:18:54;99835.28;;;-1.54;100.00
30081;BME280;16902;50.816;12.828;2023-02-04T21:23:55;99839.31;;;-1.48;100.00
30081;BME280;16902;50.816;12.828;2023-02-04T21:28:57;99832.59;;;-1.51;100.00
30081;BME280;16902;50.816;12.828;2023-02-04T21:33:59;99835.41;;;-1.59;100.00
30081;BME280;16902;50.816;12.828;2023-02-04T21:39:01;99839.53;;;-1.54;100.00
30081;BME280;16902;50.816;12.828;2023-02-04T21:44:02;99842.25;;;-1.59;100.00
30081;BME280;16902;50.816;12.828;2023-02-04T21:49:04;99838.69;;;-1.55;100.00
30081;BME280;16902;50.816;12.828;2023-02-04T21:54:06;99834.25;;;-1.50;100.00
30081;BME280;16902;50.816;12.828;2023-02-04T21:59:07;99836.09;;;-1.53;100.00
30081;BME280;16902;50.816;12.828;2023-02-04T22:04:09;99836.25;;;-1.58;100.00
30081;BME280;16902;50.816;12.828;2023-02-04T22:09:11;99837.41;;;-1.67;100.00
30081;BME280;16902;50.816;12.828;2023-02-04T22:14:13;99850.09;;;-1.65;100.00
30081;BME280;16902;50.816;12.828;2023-02-04T22:19:33;99845.66;;;-1.60;100.00
30081;BME280;16902;50.816;12.828;2023-02-04T22:24:35;99849.91;;;-1.59;100.00
30081;BME280;16902;50.816;12.828;2023-02-04T22:29:36;99849.78;;;-1.56;100.00
30081;BME280;16902;50.816;12.828;2023-02-04T22:34:38;99854.88;;;-1.54;100.00
30081;BME280;16902;50.816;12.828;2023-02-04T22:39:40;99849.13;;;-1.61;100.00
30081;BME280;16902;50.816;12.828;2023-02-04T22:44:42;99844.16;;;-1.66;100.00
30081;BME280;16902;50.816;12.828;2023-02-04T22:49:44;99836.78;;;-1.73;100.00
30081;BME280;16902;50.816;12.828;2023-02-04T22:54:45;99831.84;;;-1.79;100.00
30081;BME280;16902;50.816;12.828;2023-02-04T22:59:47;99828.16;;;-1.96;100.00
30081;BME280;16902;50.816;12.828;2023-02-04T23:04:49;99837.81;;;-2.05;100.00
30081;BME280;16902;50.816;12.828;2023-02-04T23:09:50;99846.16;;;-2.00;100.00
30081;BME280;16902;50.816;12.828;2023-02-04T23:14:52;99843.69;;;-2.03;100.00
30081;BME280;16902;50.816;12.828;2023-02-04T23:19:54;99853.06;;;-2.04;100.00
30081;BME280;16902;50.816;12.828;2023-02-04T23:24:56;99853.75;;;-1.99;100.00
30081;BME280;16902;50.816;12.828;2023-02-04T23:29:57;99861.28;;;-1.94;100.00
30081;BME280;16902;50.816;12.828;2023-02-04T23:34:59;99864.50;;;-1.89;100.00
30081;BME280;16902;50.816;12.828;2023-02-04T23:40:01;99864.31;;;-1.83;100.00
30081;BME280;16902;50.816;12.828;2023-02-04T23:45:03;99851.94;;;-1.95;100.00
30081;BME280;16902;50.816;12.828;2023-02-04T23:50:06;99839.63;;;-2.09;100.00
30081;BME280;16902;50.816;12.828;2023-02-04T23:55:08;99831.44;;;-2.19;100.00
